sensor_id;sensor_type;location;lat;lon;timestamp;P1;durP1;ratioP1;P2;durP2;ratioP2
32292;SDS011;43233;48.608;8.838;2022-12-18T00:01:35;44.23;;;23.27;;
32292;SDS011;43233;48.608;8.838;2022-12-18T00:04:05;47.70;;;22.37;;
32292;SDS011;43233;48.608;8.838;2022-12-18T00:06:33;45.93;;;25.07;;
32292;SDS011;43233;48.608;8.838;2022-12-18T00:09:00;37.67;;;20.23;;
32292;SDS011;43233;48.608;8.838;2022-12-18T00:11:28;42.00;;;22.27;;
32292;SDS011;43233;48.608;8.838;2022-12-18T00:13:55;45.90;;;24.07;;
32292;SDS011;43233;48.608;8.838;2022-12-18T00:16:23;49.70;;;23.10;;
32292;SDS011;43233;48.608;8.838;2022-12-18T00:18:51;59.17;;;24.50;;
32292;SDS011;43233;48.608;8.838;2022-12-18T00:21:19;43.07;;;25.50;;
32292;SDS011;43233;48.608;8.838;2022-12-18T00:23:46;51.47;;;26.53;;
32292;SDS011;43233;48.608;8.838;2022-12-18T00:26:17;42.63;;;25.53;;
32292;SDS011;43233;48.608;8.838;2022-12-18T00:28:45;44.30;;;21.53;;
32292;SDS011;43233;48.608;8.838;2022-12-18T00:31:15;37.60;;;22.97;;
32292;SDS011;43233;48.608;8.838;2022-12-18T00:33:43;45.63;;;25.40;;
32292;SDS011;43233;48.608;8.838;2022-12-18T00:36:13;45.63;;;25.40;;
32292;SDS011;43233;48.608;8.838;2022-12-18T00:38:44;45.70;;;25.57;;
32292;SDS011;43233;48.608;8.838;2022-12-18T00:41:11;27.70;;;19.60;;
32292;SDS011;43233;48.608;8.838;2022-12-18T00:43:38;40.23;;;23.60;;
32292;SDS011;43233;48.608;8.838;2022-12-18T00:46:04;31.93;;;22.57;;
32292;SDS011;43233;48.608;8.838;2022-12-18T00:48:31;32.13;;;20.60;;
32292;SDS011;43233;48.608;8.838;2022-12-18T00:50:57;33.00;;;19.47;;
32292;SDS011;43233;48.608;8.838;2022-12-18T00:53:22;37.43;;;21.80;;
32292;SDS011;43233;48.608;8.838;2022-12-18T00:55:48;35.60;;;23.50;;
32292;SDS011;43233;48.608;8.838;2022-12-18T00:58:14;41.20;;;23.70;;
32292;SDS011;43233;48.608;8.838;2022-12-18T01:00:41;39.93;;;21.17;;
32292;SDS011;43233;48.608;8.838;2022-12-18T01:03:07;46.67;;;23.93;;
32292;SDS011;43233;48.608;8.838;2022-12-18T01:05:33;38.70;;;23.10;;
32292;SDS011;43233;48.608;8.838;2022-12-18T01:07:58;42.57;;;24.43;;
32292;SDS011;43233;48.608;8.838;2022-12-18T01:10:24;40.70;;;25.40;;
32292;SDS011;43233;48.608;8.838;2022-12-18T01:12:50;41.80;;;22.50;;
32292;SDS011;43233;48.608;8.838;2022-12-18T01:15:16;40.27;;;21.53;;
32292;SDS011;43233;48.608;8.838;2022-12-18T01:17:43;44.07;;;23.80;;
32292;SDS011;43233;48.608;8.838;2022-12-18T01:20:09;42.60;;;23.57;;
32292;SDS011;43233;48.608;8.838;2022-12-18T01:22:36;48.67;;;25.63;;
32292;SDS011;43233;48.608;8.838;2022-12-18T01:25:02;41.87;;;24.40;;
32292;SDS011;43233;48.608;8.838;2022-12-18T01:27:29;44.30;;;25.23;;
32292;SDS011;43233;48.608;8.838;2022-12-18T01:29:55;46.07;;;26.50;;
32292;SDS011;43233;48.608;8.838;2022-12-18T01:32:20;53.00;;;24.47;;
32292;SDS011;43233;48.608;8.838;2022-12-18T01:34:46;46.90;;;26.33;;
32292;SDS011;43233;48.608;8.838;2022-12-18T01:37:12;54.67;;;29.10;;
32292;SDS011;43233;48.608;8.838;2022-12-18T01:39:38;59.10;;;31.60;;
32292;SDS011;43233;48.608;8.838;2022-12-18T01:42:14;52.60;;;28.40;;
32292;SDS011;43233;48.608;8.838;2022-12-18T01:49:55;37.60;;;24.07;;
32292;SDS011;43233;48.608;8.838;2022-12-18T01:52:24;34.10;;;23.53;;
32292;SDS011;43233;48.608;8.838;2022-12-18T01:54:53;32.30;;;21.80;;
32292;SDS011;43233;48.608;8.838;2022-12-18T01:57:20;31.50;;;21.83;;
32292;SDS011;43233;48.608;8.838;2022-12-18T01:59:47;40.00;;;23.70;;
32292;SDS011;43233;48.608;8.838;2022-12-18T02:02:17;36.13;;;25.27;;
32292;SDS011;43233;48.608;8.838;2022-12-18T02:04:44;51.13;;;25.20;;
32292;SDS011;43233;48.608;8.838;2022-12-18T02:09:50;63.43;;;24.10;;
32292;SDS011;43233;48.608;8.838;2022-12-18T02:12:31;53.77;;;25.10;;
32292;SDS011;43233;48.608;8.838;2022-12-18T02:17:59;50.33;;;26.80;;
32292;SDS011;43233;48.608;8.838;2022-12-18T02:20:39;58.40;;;29.03;;
32292;SDS011;43233;48.608;8.838;2022-12-18T02:29:05;61.40;;;30.97;;
32292;SDS011;43233;48.608;8.838;2022-12-18T02:31:39;62.53;;;30.20;;
32292;SDS011;43233;48.608;8.838;2022-12-18T02:34:08;57.93;;;29.23;;
32292;SDS011;43233;48.608;8.838;2022-12-18T02:36:35;62.23;;;28.80;;
32292;SDS011;43233;48.608;8.838;2022-12-18T02:39:04;58.17;;;29.87;;
32292;SDS011;43233;48.608;8.838;2022-12-18T02:41:31;61.47;;;28.73;;
32292;SDS011;43233;48.608;8.838;2022-12-18T02:44:01;59.97;;;29.47;;
32292;SDS011;43233;48.608;8.838;2022-12-18T02:54:28;60.47;;;28.97;;
32292;SDS011;43233;48.608;8.838;2022-12-18T03:05:30;61.93;;;29.37;;
32292;SDS011;43233;48.608;8.838;2022-12-18T03:08:06;56.70;;;28.60;;
32292;SDS011;43233;48.608;8.838;2022-12-18T03:10:34;62.57;;;29.10;;
32292;SDS011;43233;48.608;8.838;2022-12-18T03:13:10;66.60;;;30.80;;
32292;SDS011;43233;48.608;8.838;2022-12-18T03:15:45;58.57;;;25.63;;
32292;SDS011;43233;48.608;8.838;2022-12-18T03:18:18;61.37;;;30.00;;
32292;SDS011;43233;48.608;8.838;2022-12-18T03:20:51;64.97;;;29.70;;
32292;SDS011;43233;48.608;8.838;2022-12-18T03:23:19;64.40;;;27.70;;
32292;SDS011;43233;48.608;8.838;2022-12-18T03:25:49;49.20;;;27.47;;
32292;SDS011;43233;48.608;8.838;2022-12-18T03:28:20;61.83;;;29.53;;
32292;SDS011;43233;48.608;8.838;2022-12-18T03:30:48;55.83;;;28.50;;
32292;SDS011;43233;48.608;8.838;2022-12-18T03:33:39;64.70;;;28.60;;
32292;SDS011;43233;48.608;8.838;2022-12-18T03:36:06;52.20;;;27.60;;
32292;SDS011;43233;48.608;8.838;2022-12-18T03:38:32;50.73;;;26.50;;
32292;SDS011;43233;48.608;8.838;2022-12-18T03:49:32;46.60;;;24.73;;
32292;SDS011;43233;48.608;8.838;2022-12-18T03:52:05;56.00;;;28.20;;
32292;SDS011;43233;48.608;8.838;2022-12-18T03:54:38;65.10;;;26.63;;
32292;SDS011;43233;48.608;8.838;2022-12-18T03:57:07;56.43;;;27.07;;
32292;SDS011;43233;48.608;8.838;2022-12-18T03:59:38;59.70;;;27.13;;
32292;SDS011;43233;48.608;8.838;2022-12-18T04:02:04;57.80;;;27.30;;
32292;SDS011;43233;48.608;8.838;2022-12-18T04:04:32;53.83;;;24.13;;
32292;SDS011;43233;48.608;8.838;2022-12-18T04:07:00;51.67;;;24.63;;
32292;SDS011;43233;48.608;8.838;2022-12-18T04:09:27;50.07;;;26.00;;
32292;SDS011;43233;48.608;8.838;2022-12-18T04:11:54;61.13;;;26.30;;
32292;SDS011;43233;48.608;8.838;2022-12-18T04:14:20;64.77;;;26.13;;
32292;SDS011;43233;48.608;8.838;2022-12-18T04:16:46;54.90;;;27.70;;
32292;SDS011;43233;48.608;8.838;2022-12-18T04:19:12;54.10;;;25.53;;
32292;SDS011;43233;48.608;8.838;2022-12-18T04:21:37;66.97;;;26.83;;
32292;SDS011;43233;48.608;8.838;2022-12-18T04:24:03;53.50;;;22.97;;
32292;SDS011;43233;48.608;8.838;2022-12-18T04:26:29;47.73;;;25.77;;
32292;SDS011;43233;48.608;8.838;2022-12-18T04:28:55;45.97;;;25.50;;
32292;SDS011;43233;48.608;8.838;2022-12-18T04:31:21;47.40;;;26.00;;
32292;SDS011;43233;48.608;8.838;2022-12-18T04:33:47;55.53;;;26.50;;
32292;SDS011;43233;48.608;8.838;2022-12-18T04:36:12;58.57;;;27.67;;
32292;SDS011;43233;48.608;8.838;2022-12-18T04:38:38;55.83;;;26.03;;
32292;SDS011;43233;48.608;8.838;2022-12-18T04:41:04;63.13;;;23.93;;
32292;SDS011;43233;48.608;8.838;2022-12-18T04:43:29;49.43;;;24.47;;
32292;SDS011;43233;48.608;8.838;2022-12-18T04:46:04;56.57;;;22.47;;
32292;SDS011;43233;48.608;8.838;2022-12-18T04:48:32;60.87;;;26.73;;
32292;SDS011;43233;48.608;8.838;2022-12-18T04:50:57;49.73;;;24.20;;
32292;SDS011;43233;48.608;8.838;2022-12-18T04:53:23;65.10;;;29.87;;
32292;SDS011;43233;48.608;8.838;2022-12-18T04:55:49;46.17;;;24.00;;
32292;SDS011;43233;48.608;8.838;2022-12-18T04:58:14;50.53;;;25.30;;
32292;SDS011;43233;48.608;8.838;2022-12-18T05:00:40;57.83;;;23.27;;
32292;SDS011;43233;48.608;8.838;2022-12-18T05:03:06;42.90;;;21.17;;
32292;SDS011;43233;48.608;8.838;2022-12-18T05:05:33;48.53;;;22.70;;
32292;SDS011;43233;48.608;8.838;2022-12-18T05:08:00;63.13;;;25.43;;
32292;SDS011;43233;48.608;8.838;2022-12-18T05:10:25;59.47;;;24.97;;
32292;SDS011;43233;48.608;8.838;2022-12-18T05:12:51;62.83;;;30.83;;
32292;SDS011;43233;48.608;8.838;2022-12-18T05:15:23;62.43;;;29.10;;
32292;SDS011;43233;48.608;8.838;2022-12-18T05:17:51;80.83;;;32.77;;
32292;SDS011;43233;48.608;8.838;2022-12-18T05:20:16;76.53;;;29.83;;
32292;SDS011;43233;48.608;8.838;2022-12-18T05:22:43;88.57;;;36.33;;
32292;SDS011;43233;48.608;8.838;2022-12-18T05:25:08;65.37;;;28.17;;
32292;SDS011;43233;48.608;8.838;2022-12-18T05:27:34;84.63;;;31.37;;
32292;SDS011;43233;48.608;8.838;2022-12-18T05:30:00;81.60;;;30.93;;
32292;SDS011;43233;48.608;8.838;2022-12-18T05:32:25;60.80;;;28.97;;
32292;SDS011;43233;48.608;8.838;2022-12-18T05:34:51;60.03;;;27.53;;
32292;SDS011;43233;48.608;8.838;2022-12-18T05:37:16;70.17;;;28.40;;
32292;SDS011;43233;48.608;8.838;2022-12-18T05:39:43;63.17;;;28.50;;
32292;SDS011;43233;48.608;8.838;2022-12-18T05:42:08;59.47;;;24.90;;
32292;SDS011;43233;48.608;8.838;2022-12-18T05:44:34;49.27;;;24.80;;
32292;SDS011;43233;48.608;8.838;2022-12-18T05:47:00;55.17;;;26.80;;
32292;SDS011;43233;48.608;8.838;2022-12-18T05:49:26;52.97;;;24.83;;
32292;SDS011;43233;48.608;8.838;2022-12-18T05:51:51;53.87;;;25.17;;
32292;SDS011;43233;48.608;8.838;2022-12-18T05:54:17;63.63;;;24.97;;
32292;SDS011;43233;48.608;8.838;2022-12-18T05:56:42;50.37;;;23.40;;
32292;SDS011;43233;48.608;8.838;2022-12-18T05:59:08;47.10;;;24.33;;
32292;SDS011;43233;48.608;8.838;2022-12-18T06:01:34;55.97;;;25.50;;
32292;SDS011;43233;48.608;8.838;2022-12-18T06:04:00;41.83;;;25.17;;
32292;SDS011;43233;48.608;8.838;2022-12-18T06:06:26;64.30;;;26.20;;
32292;SDS011;43233;48.608;8.838;2022-12-18T06:08:53;39.53;;;24.00;;
32292;SDS011;43233;48.608;8.838;2022-12-18T06:11:20;70.10;;;30.57;;
32292;SDS011;43233;48.608;8.838;2022-12-18T06:13:54;52.70;;;23.80;;
32292;SDS011;43233;48.608;8.838;2022-12-18T06:16:21;49.13;;;21.67;;
32292;SDS011;43233;48.608;8.838;2022-12-18T06:18:46;50.27;;;24.30;;
32292;SDS011;43233;48.608;8.838;2022-12-18T06:21:12;45.23;;;26.10;;
32292;SDS011;43233;48.608;8.838;2022-12-18T06:23:38;45.77;;;24.00;;
32292;SDS011;43233;48.608;8.838;2022-12-18T06:26:06;45.00;;;24.03;;
32292;SDS011;43233;48.608;8.838;2022-12-18T06:28:34;47.50;;;23.53;;
32292;SDS011;43233;48.608;8.838;2022-12-18T06:30:59;50.93;;;24.00;;
32292;SDS011;43233;48.608;8.838;2022-12-18T06:33:26;33.83;;;21.50;;
32292;SDS011;43233;48.608;8.838;2022-12-18T06:35:52;41.17;;;21.50;;
32292;SDS011;43233;48.608;8.838;2022-12-18T06:38:17;42.37;;;23.43;;
32292;SDS011;43233;48.608;8.838;2022-12-18T06:40:43;37.30;;;21.87;;
32292;SDS011;43233;48.608;8.838;2022-12-18T06:43:08;44.37;;;20.87;;
32292;SDS011;43233;48.608;8.838;2022-12-18T06:45:34;33.00;;;18.97;;
32292;SDS011;43233;48.608;8.838;2022-12-18T06:47:59;39.30;;;21.63;;
32292;SDS011;43233;48.608;8.838;2022-12-18T06:50:25;40.13;;;22.37;;
32292;SDS011;43233;48.608;8.838;2022-12-18T06:52:51;33.90;;;20.13;;
32292;SDS011;43233;48.608;8.838;2022-12-18T06:55:17;35.60;;;19.83;;
32292;SDS011;43233;48.608;8.838;2022-12-18T06:57:42;33.73;;;20.07;;
32292;SDS011;43233;48.608;8.838;2022-12-18T07:00:08;35.90;;;18.90;;
32292;SDS011;43233;48.608;8.838;2022-12-18T07:02:34;33.97;;;19.93;;
32292;SDS011;43233;48.608;8.838;2022-12-18T07:05:00;36.33;;;18.70;;
32292;SDS011;43233;48.608;8.838;2022-12-18T07:07:26;36.07;;;20.40;;
32292;SDS011;43233;48.608;8.838;2022-12-18T07:09:52;35.47;;;20.30;;
32292;SDS011;43233;48.608;8.838;2022-12-18T07:12:18;38.07;;;21.90;;
32292;SDS011;43233;48.608;8.838;2022-12-18T07:14:43;43.33;;;22.87;;
32292;SDS011;43233;48.608;8.838;2022-12-18T07:17:09;32.70;;;19.77;;
32292;SDS011;43233;48.608;8.838;2022-12-18T07:19:35;37.57;;;20.30;;
32292;SDS011;43233;48.608;8.838;2022-12-18T07:22:00;34.17;;;21.60;;
32292;SDS011;43233;48.608;8.838;2022-12-18T07:24:26;39.00;;;20.30;;
32292;SDS011;43233;48.608;8.838;2022-12-18T07:26:52;32.60;;;20.40;;
32292;SDS011;43233;48.608;8.838;2022-12-18T07:29:17;36.43;;;23.57;;
32292;SDS011;43233;48.608;8.838;2022-12-18T07:31:43;35.20;;;18.80;;
32292;SDS011;43233;48.608;8.838;2022-12-18T07:34:10;55.97;;;28.40;;
32292;SDS011;43233;48.608;8.838;2022-12-18T07:36:36;47.37;;;26.30;;
32292;SDS011;43233;48.608;8.838;2022-12-18T07:39:02;40.73;;;24.03;;
32292;SDS011;43233;48.608;8.838;2022-12-18T07:41:28;40.73;;;21.20;;
32292;SDS011;43233;48.608;8.838;2022-12-18T07:43:54;37.70;;;21.50;;
32292;SDS011;43233;48.608;8.838;2022-12-18T07:46:19;32.83;;;19.03;;
32292;SDS011;43233;48.608;8.838;2022-12-18T07:48:45;37.40;;;19.37;;
32292;SDS011;43233;48.608;8.838;2022-12-18T07:51:11;30.27;;;19.57;;
32292;SDS011;43233;48.608;8.838;2022-12-18T07:53:37;44.90;;;22.20;;
32292;SDS011;43233;48.608;8.838;2022-12-18T07:56:05;38.87;;;22.17;;
32292;SDS011;43233;48.608;8.838;2022-12-18T07:58:33;40.70;;;21.00;;
32292;SDS011;43233;48.608;8.838;2022-12-18T08:01:06;45.93;;;21.57;;
32292;SDS011;43233;48.608;8.838;2022-12-18T08:03:36;44.33;;;23.23;;
32292;SDS011;43233;48.608;8.838;2022-12-18T08:06:03;45.53;;;23.70;;
32292;SDS011;43233;48.608;8.838;2022-12-18T08:08:29;57.70;;;29.23;;
32292;SDS011;43233;48.608;8.838;2022-12-18T08:10:56;28.03;;;20.57;;
32292;SDS011;43233;48.608;8.838;2022-12-18T08:13:22;32.03;;;19.67;;
32292;SDS011;43233;48.608;8.838;2022-12-18T08:15:57;23.07;;;18.33;;
32292;SDS011;43233;48.608;8.838;2022-12-18T08:18:24;44.57;;;28.87;;
32292;SDS011;43233;48.608;8.838;2022-12-18T08:20:50;42.00;;;24.90;;
32292;SDS011;43233;48.608;8.838;2022-12-18T08:23:16;33.47;;;20.33;;
32292;SDS011;43233;48.608;8.838;2022-12-18T08:25:41;36.17;;;21.83;;
32292;SDS011;43233;48.608;8.838;2022-12-18T08:28:07;34.70;;;22.27;;
32292;SDS011;43233;48.608;8.838;2022-12-18T08:30:33;33.83;;;21.40;;
32292;SDS011;43233;48.608;8.838;2022-12-18T08:32:58;46.17;;;23.50;;
32292;SDS011;43233;48.608;8.838;2022-12-18T08:35:24;31.83;;;21.13;;
32292;SDS011;43233;48.608;8.838;2022-12-18T08:37:49;35.53;;;20.20;;
32292;SDS011;43233;48.608;8.838;2022-12-18T08:40:15;41.50;;;22.00;;
32292;SDS011;43233;48.608;8.838;2022-12-18T08:42:41;39.63;;;21.17;;
32292;SDS011;43233;48.608;8.838;2022-12-18T08:45:25;39.27;;;22.80;;
32292;SDS011;43233;48.608;8.838;2022-12-18T08:47:51;44.67;;;23.60;;
32292;SDS011;43233;48.608;8.838;2022-12-18T08:50:16;47.20;;;22.03;;
32292;SDS011;43233;48.608;8.838;2022-12-18T08:52:42;48.30;;;24.50;;
32292;SDS011;43233;48.608;8.838;2022-12-18T08:55:08;61.23;;;30.10;;
32292;SDS011;43233;48.608;8.838;2022-12-18T08:57:36;55.97;;;29.20;;
32292;SDS011;43233;48.608;8.838;2022-12-18T09:00:03;47.43;;;24.93;;
32292;SDS011;43233;48.608;8.838;2022-12-18T09:02:29;48.97;;;23.80;;
32292;SDS011;43233;48.608;8.838;2022-12-18T09:04:55;49.20;;;27.90;;
32292;SDS011;43233;48.608;8.838;2022-12-18T09:07:20;54.27;;;28.93;;
32292;SDS011;43233;48.608;8.838;2022-12-18T09:09:46;49.97;;;27.03;;
32292;SDS011;43233;48.608;8.838;2022-12-18T09:12:12;45.23;;;27.67;;
32292;SDS011;43233;48.608;8.838;2022-12-18T09:14:38;65.00;;;32.30;;
32292;SDS011;43233;48.608;8.838;2022-12-18T09:17:03;73.80;;;35.40;;
32292;SDS011;43233;48.608;8.838;2022-12-18T09:19:29;68.63;;;34.60;;
32292;SDS011;43233;48.608;8.838;2022-12-18T09:21:54;55.50;;;28.90;;
32292;SDS011;43233;48.608;8.838;2022-12-18T09:24:23;58.53;;;28.87;;
32292;SDS011;43233;48.608;8.838;2022-12-18T09:26:52;46.60;;;26.47;;
32292;SDS011;43233;48.608;8.838;2022-12-18T09:29:19;59.00;;;32.50;;
32292;SDS011;43233;48.608;8.838;2022-12-18T09:31:44;49.87;;;26.57;;
32292;SDS011;43233;48.608;8.838;2022-12-18T09:34:10;50.07;;;25.50;;
32292;SDS011;43233;48.608;8.838;2022-12-18T09:36:36;57.77;;;28.50;;
32292;SDS011;43233;48.608;8.838;2022-12-18T09:39:02;58.03;;;26.50;;
32292;SDS011;43233;48.608;8.838;2022-12-18T09:41:42;64.00;;;26.43;;
32292;SDS011;43233;48.608;8.838;2022-12-18T09:49:56;58.13;;;27.20;;
32292;SDS011;43233;48.608;8.838;2022-12-18T09:52:39;53.67;;;25.87;;
32292;SDS011;43233;48.608;8.838;2022-12-18T09:58:00;49.87;;;25.33;;
32292;SDS011;43233;48.608;8.838;2022-12-18T10:00:31;58.20;;;27.17;;
32292;SDS011;43233;48.608;8.838;2022-12-18T10:02:59;49.23;;;26.63;;
32292;SDS011;43233;48.608;8.838;2022-12-18T10:10:43;65.33;;;26.87;;
32292;SDS011;43233;48.608;8.838;2022-12-18T10:13:15;51.70;;;26.93;;
32292;SDS011;43233;48.608;8.838;2022-12-18T10:16:13;57.53;;;28.40;;
32292;SDS011;43233;48.608;8.838;2022-12-18T10:27:21;52.30;;;27.10;;
32292;SDS011;43233;48.608;8.838;2022-12-18T10:29:49;53.97;;;25.30;;
32292;SDS011;43233;48.608;8.838;2022-12-18T10:32:17;47.43;;;25.07;;
32292;SDS011;43233;48.608;8.838;2022-12-18T10:34:45;60.73;;;31.27;;
32292;SDS011;43233;48.608;8.838;2022-12-18T10:37:14;59.27;;;29.80;;
32292;SDS011;43233;48.608;8.838;2022-12-18T10:40:28;52.13;;;24.77;;
32292;SDS011;43233;48.608;8.838;2022-12-18T10:42:34;52.03;;;25.90;;
32292;SDS011;43233;48.608;8.838;2022-12-18T10:45:01;52.17;;;25.30;;
32292;SDS011;43233;48.608;8.838;2022-12-18T10:47:45;48.03;;;27.80;;
32292;SDS011;43233;48.608;8.838;2022-12-18T10:50:20;48.03;;;25.80;;
32292;SDS011;43233;48.608;8.838;2022-12-18T10:52:57;58.73;;;27.87;;
32292;SDS011;43233;48.608;8.838;2022-12-18T10:55:32;63.30;;;28.20;;
32292;SDS011;43233;48.608;8.838;2022-12-18T11:03:29;50.03;;;27.13;;
32292;SDS011;43233;48.608;8.838;2022-12-18T11:11:26;57.30;;;27.93;;
32292;SDS011;43233;48.608;8.838;2022-12-18T11:16:27;51.77;;;26.07;;
32292;SDS011;43233;48.608;8.838;2022-12-18T11:18:57;59.97;;;28.77;;
32292;SDS011;43233;48.608;8.838;2022-12-18T11:21:54;58.57;;;28.40;;
32292;SDS011;43233;48.608;8.838;2022-12-18T11:24:30;61.37;;;29.47;;
32292;SDS011;43233;48.608;8.838;2022-12-18T11:26:57;54.73;;;29.83;;
32292;SDS011;43233;48.608;8.838;2022-12-18T11:29:36;63.37;;;33.53;;
32292;SDS011;43233;48.608;8.838;2022-12-18T11:34:57;64.87;;;32.33;;
32292;SDS011;43233;48.608;8.838;2022-12-18T11:37:33;63.37;;;28.70;;
32292;SDS011;43233;48.608;8.838;2022-12-18T11:40:06;60.37;;;29.17;;
32292;SDS011;43233;48.608;8.838;2022-12-18T11:42:48;62.40;;;28.57;;
32292;SDS011;43233;48.608;8.838;2022-12-18T11:45:26;59.50;;;28.30;;
32292;SDS011;43233;48.608;8.838;2022-12-18T11:47:58;54.73;;;28.40;;
32292;SDS011;43233;48.608;8.838;2022-12-18T11:50:41;51.10;;;27.27;;
32292;SDS011;43233;48.608;8.838;2022-12-18T11:53:10;49.00;;;26.30;;
32292;SDS011;43233;48.608;8.838;2022-12-18T12:06:53;55.93;;;27.27;;
32292;SDS011;43233;48.608;8.838;2022-12-18T12:15:22;53.87;;;26.97;;
32292;SDS011;43233;48.608;8.838;2022-12-18T12:25:49;52.27;;;26.63;;
32292;SDS011;43233;48.608;8.838;2022-12-18T12:36:10;44.80;;;25.00;;
32292;SDS011;43233;48.608;8.838;2022-12-18T12:38:41;55.93;;;25.00;;
32292;SDS011;43233;48.608;8.838;2022-12-18T12:41:12;50.17;;;25.20;;
32292;SDS011;43233;48.608;8.838;2022-12-18T12:43:58;44.47;;;23.27;;
32292;SDS011;43233;48.608;8.838;2022-12-18T12:46:28;50.13;;;23.53;;
32292;SDS011;43233;48.608;8.838;2022-12-18T12:49:00;43.13;;;24.60;;
32292;SDS011;43233;48.608;8.838;2022-12-18T12:51:33;43.73;;;24.47;;
32292;SDS011;43233;48.608;8.838;2022-12-18T12:54:02;51.53;;;26.57;;
32292;SDS011;43233;48.608;8.838;2022-12-18T12:56:51;45.77;;;24.57;;
32292;SDS011;43233;48.608;8.838;2022-12-18T13:02:11;47.27;;;23.13;;
32292;SDS011;43233;48.608;8.838;2022-12-18T13:04:51;51.37;;;27.23;;
32292;SDS011;43233;48.608;8.838;2022-12-18T13:08:08;56.07;;;27.90;;
32292;SDS011;43233;48.608;8.838;2022-12-18T13:18:27;48.13;;;26.50;;
32292;SDS011;43233;48.608;8.838;2022-12-18T13:25:47;43.00;;;22.40;;
32292;SDS011;43233;48.608;8.838;2022-12-18T13:28:21;38.13;;;22.07;;
32292;SDS011;43233;48.608;8.838;2022-12-18T13:30:57;44.00;;;25.17;;
32292;SDS011;43233;48.608;8.838;2022-12-18T13:38:47;48.57;;;23.33;;
32292;SDS011;43233;48.608;8.838;2022-12-18T13:41:32;42.27;;;22.03;;
32292;SDS011;43233;48.608;8.838;2022-12-18T13:46:42;36.97;;;21.20;;
32292;SDS011;43233;48.608;8.838;2022-12-18T13:51:42;45.27;;;23.50;;
32292;SDS011;43233;48.608;8.838;2022-12-18T13:56:55;48.77;;;21.27;;
32292;SDS011;43233;48.608;8.838;2022-12-18T13:59:22;42.90;;;23.10;;
32292;SDS011;43233;48.608;8.838;2022-12-18T14:06:47;39.60;;;21.10;;
32292;SDS011;43233;48.608;8.838;2022-12-18T14:09:17;49.13;;;26.43;;
32292;SDS011;43233;48.608;8.838;2022-12-18T14:11:49;45.90;;;22.90;;
32292;SDS011;43233;48.608;8.838;2022-12-18T14:14:16;54.27;;;26.87;;
32292;SDS011;43233;48.608;8.838;2022-12-18T14:16:43;46.43;;;24.53;;
32292;SDS011;43233;48.608;8.838;2022-12-18T14:19:13;41.37;;;21.43;;
32292;SDS011;43233;48.608;8.838;2022-12-18T14:21:45;48.30;;;22.90;;
32292;SDS011;43233;48.608;8.838;2022-12-18T14:26:43;45.70;;;24.03;;
32292;SDS011;43233;48.608;8.838;2022-12-18T14:32:09;46.10;;;20.37;;
32292;SDS011;43233;48.608;8.838;2022-12-18T14:34:37;38.83;;;21.20;;
32292;SDS011;43233;48.608;8.838;2022-12-18T14:37:03;35.57;;;19.57;;
32292;SDS011;43233;48.608;8.838;2022-12-18T14:39:29;40.30;;;22.43;;
32292;SDS011;43233;48.608;8.838;2022-12-18T14:41:55;39.67;;;21.20;;
32292;SDS011;43233;48.608;8.838;2022-12-18T14:44:21;55.53;;;26.53;;
32292;SDS011;43233;48.608;8.838;2022-12-18T14:46:47;53.27;;;28.47;;
32292;SDS011;43233;48.608;8.838;2022-12-18T14:49:33;48.57;;;24.73;;
32292;SDS011;43233;48.608;8.838;2022-12-18T14:52:05;39.30;;;22.20;;
32292;SDS011;43233;48.608;8.838;2022-12-18T14:54:45;44.17;;;23.77;;
32292;SDS011;43233;48.608;8.838;2022-12-18T14:57:19;49.80;;;21.23;;
32292;SDS011;43233;48.608;8.838;2022-12-18T14:59:48;43.27;;;21.80;;
32292;SDS011;43233;48.608;8.838;2022-12-18T15:04:45;44.70;;;23.70;;
32292;SDS011;43233;48.608;8.838;2022-12-18T15:07:18;45.50;;;23.50;;
32292;SDS011;43233;48.608;8.838;2022-12-18T15:18:19;59.90;;;29.33;;
32292;SDS011;43233;48.608;8.838;2022-12-18T15:20:53;60.80;;;32.00;;
32292;SDS011;43233;48.608;8.838;2022-12-18T15:23:35;49.67;;;24.90;;
32292;SDS011;43233;48.608;8.838;2022-12-18T15:26:11;46.70;;;23.70;;
32292;SDS011;43233;48.608;8.838;2022-12-18T15:33:38;49.63;;;23.10;;
32292;SDS011;43233;48.608;8.838;2022-12-18T15:36:08;41.77;;;24.50;;
32292;SDS011;43233;48.608;8.838;2022-12-18T15:38:35;43.83;;;22.23;;
32292;SDS011;43233;48.608;8.838;2022-12-18T15:41:01;48.07;;;25.00;;
32292;SDS011;43233;48.608;8.838;2022-12-18T15:43:27;47.80;;;23.80;;
32292;SDS011;43233;48.608;8.838;2022-12-18T15:46:10;53.03;;;26.50;;
32292;SDS011;43233;48.608;8.838;2022-12-18T15:48:47;39.23;;;22.93;;
32292;SDS011;43233;48.608;8.838;2022-12-18T15:51:18;44.30;;;22.80;;
32292;SDS011;43233;48.608;8.838;2022-12-18T15:53:47;41.20;;;22.53;;
32292;SDS011;43233;48.608;8.838;2022-12-18T15:56:14;41.10;;;22.00;;
32292;SDS011;43233;48.608;8.838;2022-12-18T15:58:59;38.03;;;20.47;;
32292;SDS011;43233;48.608;8.838;2022-12-18T16:01:28;39.87;;;20.47;;
32292;SDS011;43233;48.608;8.838;2022-12-18T16:03:55;49.27;;;22.73;;
32292;SDS011;43233;48.608;8.838;2022-12-18T16:06:24;44.47;;;23.40;;
32292;SDS011;43233;48.608;8.838;2022-12-18T16:08:49;51.60;;;26.13;;
32292;SDS011;43233;48.608;8.838;2022-12-18T16:11:25;59.33;;;25.30;;
32292;SDS011;43233;48.608;8.838;2022-12-18T16:14:16;43.90;;;23.47;;
32292;SDS011;43233;48.608;8.838;2022-12-18T16:16:47;48.63;;;27.30;;
32292;SDS011;43233;48.608;8.838;2022-12-18T16:19:14;53.13;;;22.97;;
32292;SDS011;43233;48.608;8.838;2022-12-18T16:21:41;48.57;;;23.87;;
32292;SDS011;43233;48.608;8.838;2022-12-18T16:24:14;41.40;;;21.93;;
32292;SDS011;43233;48.608;8.838;2022-12-18T16:26:41;40.70;;;21.57;;
32292;SDS011;43233;48.608;8.838;2022-12-18T16:29:07;47.57;;;22.37;;
32292;SDS011;43233;48.608;8.838;2022-12-18T16:31:34;39.50;;;21.77;;
32292;SDS011;43233;48.608;8.838;2022-12-18T16:34:09;44.50;;;22.57;;
32292;SDS011;43233;48.608;8.838;2022-12-18T16:36:48;49.17;;;23.50;;
32292;SDS011;43233;48.608;8.838;2022-12-18T16:39:18;40.33;;;22.27;;
32292;SDS011;43233;48.608;8.838;2022-12-18T16:41:44;40.17;;;22.10;;
32292;SDS011;43233;48.608;8.838;2022-12-18T16:44:10;42.67;;;21.80;;
32292;SDS011;43233;48.608;8.838;2022-12-18T16:46:37;45.20;;;23.40;;
32292;SDS011;43233;48.608;8.838;2022-12-18T16:49:03;42.73;;;22.97;;
32292;SDS011;43233;48.608;8.838;2022-12-18T16:51:29;41.00;;;21.30;;
32292;SDS011;43233;48.608;8.838;2022-12-18T16:53:58;44.07;;;22.40;;
32292;SDS011;43233;48.608;8.838;2022-12-18T16:56:24;46.80;;;21.37;;
32292;SDS011;43233;48.608;8.838;2022-12-18T16:58:53;41.47;;;24.03;;
32292;SDS011;43233;48.608;8.838;2022-12-18T17:01:20;39.70;;;20.67;;
32292;SDS011;43233;48.608;8.838;2022-12-18T17:03:50;44.10;;;23.33;;
32292;SDS011;43233;48.608;8.838;2022-12-18T17:06:17;44.13;;;21.93;;
32292;SDS011;43233;48.608;8.838;2022-12-18T17:08:43;43.43;;;22.13;;
32292;SDS011;43233;48.608;8.838;2022-12-18T17:11:09;47.60;;;23.00;;
32292;SDS011;43233;48.608;8.838;2022-12-18T17:13:34;48.47;;;22.80;;
32292;SDS011;43233;48.608;8.838;2022-12-18T17:16:03;51.77;;;25.13;;
32292;SDS011;43233;48.608;8.838;2022-12-18T17:18:31;45.00;;;23.77;;
32292;SDS011;43233;48.608;8.838;2022-12-18T17:21:00;52.17;;;23.10;;